createdAt,value
2023-04-07T00:00:00.250Z,1.45
2023-04-07T00:03:02.576Z,1.34
2023-04-07T00:06:04.397Z,1.60
2023-04-07T00:09:06.184Z,1.85
2023-04-07T00:12:07.886Z,1.92
2023-04-07T00:15:09.986Z,1.53
2023-04-07T00:18:11.670Z,1.50
2023-04-07T00:21:13.352Z,1.62
2023-04-07T00:24:20.954Z,1.50
2023-04-07T00:27:29.019Z,1.18
2023-04-07T00:30:30.747Z,1.54
2023-04-07T00:33:32.414Z,1.53
2023-04-07T00:36:34.088Z,1.89
2023-04-07T00:39:35.745Z,1.63
2023-04-07T00:42:37.368Z,1.58
2023-04-07T00:45:39.088Z,1.42
2023-04-07T00:48:40.996Z,1.62
2023-04-07T00:51:42.639Z,1.40
2023-04-07T00:54:46.950Z,1.62
2023-04-07T00:57:48.993Z,1.38
2023-04-07T01:01:15.702Z,1.27
2023-04-07T01:04:26.503Z,1.32
2023-04-07T01:07:44.326Z,1.42
2023-04-07T01:10:53.204Z,1.84
2023-04-07T01:13:55.418Z,1.57
2023-04-07T01:17:01.982Z,1.87
2023-04-07T01:20:08.244Z,1.89
2023-04-07T01:23:17.707Z,2.06
2023-04-07T01:26:24.879Z,2.12
2023-04-07T01:29:33.122Z,1.88
2023-04-07T01:32:37.064Z,1.91
2023-04-07T01:35:40.580Z,1.94
2023-04-07T01:38:44.243Z,1.73
2023-04-07T01:41:46.664Z,2.07
2023-04-07T01:44:48.834Z,1.99
2023-04-07T01:47:51.275Z,2.05
2023-04-07T01:50:54.830Z,1.95
2023-04-07T01:53:57.663Z,2.31
2023-04-07T01:56:59.412Z,1.69
2023-04-07T02:00:01.046Z,2.13
2023-04-07T02:03:10.726Z,1.94
2023-04-07T02:06:16.739Z,1.76
2023-04-07T02:09:21.463Z,1.71
2023-04-07T02:12:26.477Z,1.80
2023-04-07T02:15:28.677Z,2.01
2023-04-07T02:18:32.479Z,2.28
2023-04-07T02:21:35.378Z,2.35
2023-04-07T02:24:36.990Z,2.24
2023-04-07T02:27:38.722Z,2.21
2023-04-07T02:30:40.520Z,1.84
2023-04-07T02:33:42.195Z,1.94
2023-04-07T02:36:44.080Z,2.17
2023-04-07T02:39:46.024Z,2.27
2023-04-07T02:42:47.745Z,1.98
2023-04-07T02:45:49.423Z,1.78
2023-04-07T02:48:51.872Z,2.20
2023-04-07T02:51:53.516Z,2.18
2023-04-07T02:54:55.509Z,1.91
2023-04-07T02:57:57.107Z,1.50
2023-04-07T03:00:58.749Z,1.89
2023-04-07T03:04:00.492Z,1.99
2023-04-07T03:07:02.329Z,2.16
2023-04-07T03:10:04.119Z,2.20
2023-04-07T03:13:06.183Z,1.91
2023-04-07T03:16:07.884Z,2.24
2023-04-07T03:19:09.976Z,2.20
2023-04-07T03:22:11.614Z,1.99
2023-04-07T03:25:13.504Z,2.12
2023-04-07T03:28:15.741Z,2.05
2023-04-07T03:31:17.404Z,2.10
2023-04-07T03:34:19.157Z,2.27
2023-04-07T03:37:20.934Z,2.08
2023-04-07T03:40:22.512Z,2.37
2023-04-07T03:43:24.152Z,2.27
2023-04-07T03:46:27.241Z,2.37
2023-04-07T03:49:29.549Z,2.30
2023-04-07T03:52:31.621Z,2.31
2023-04-07T03:55:34.464Z,1.89
2023-04-07T03:58:36.217Z,2.01
2023-04-07T04:01:38.065Z,2.37
2023-04-07T04:04:39.794Z,2.08
2023-04-07T04:07:41.519Z,1.67
2023-04-07T04:10:43.161Z,1.92
2023-04-07T04:13:44.804Z,2.20
2023-04-07T04:16:46.500Z,2.36
2023-04-07T04:19:48.207Z,2.40
2023-04-07T04:22:49.850Z,1.84
2023-04-07T04:25:51.823Z,2.24
2023-04-07T04:28:53.656Z,2.06
2023-04-07T04:31:55.446Z,1.75
2023-04-07T04:34:57.049Z,2.23
2023-04-07T04:37:58.799Z,2.24
2023-04-07T04:41:00.561Z,2.62
2023-04-07T04:44:02.163Z,2.58
2023-04-07T04:47:03.844Z,2.56
2023-04-07T04:50:09.066Z,1.99
2023-04-07T04:53:10.708Z,2.43
2023-04-07T04:56:12.612Z,2.53
2023-04-07T04:59:14.317Z,2.27
2023-04-07T05:02:16.496Z,2.45
2023-04-07T05:05:18.355Z,2.14
2023-04-07T05:08:20.536Z,2.26
2023-04-07T05:11:22.461Z,2.56
2023-04-07T05:14:26.411Z,2.28
2023-04-07T05:17:28.156Z,2.23
2023-04-07T05:20:30.269Z,2.17
2023-04-07T05:23:32.027Z,2.26
2023-04-07T05:26:33.695Z,2.31
2023-04-07T05:29:35.310Z,2.78
2023-04-07T05:32:37.059Z,2.78
2023-04-07T05:35:38.756Z,2.87
2023-04-07T05:38:40.452Z,2.39
2023-04-07T05:41:42.402Z,2.65
2023-04-07T05:44:44.101Z,2.51
2023-04-07T05:47:49.982Z,2.32
2023-04-07T05:50:51.685Z,2.16
2023-04-07T05:53:53.538Z,2.65
2023-04-07T05:56:56.339Z,2.76
2023-04-07T05:59:58.127Z,3.15
2023-04-07T06:03:00.146Z,2.95
2023-04-07T06:06:03.908Z,2.48
2023-04-07T06:09:07.007Z,2.51
2023-04-07T06:12:12.357Z,3.01
2023-04-07T06:15:14.083Z,3.31
2023-04-07T06:18:15.933Z,2.89
2023-04-07T06:21:17.843Z,3.25
2023-04-07T06:24:22.720Z,2.71
2023-04-07T06:27:24.390Z,2.93
2023-04-07T06:30:26.138Z,3.51
2023-04-07T06:33:28.664Z,3.60
2023-04-07T06:36:30.487Z,3.56
2023-04-07T06:39:32.341Z,4.01
2023-04-07T06:42:34.009Z,4.00
2023-04-07T06:45:35.751Z,4.30
2023-04-07T06:48:37.437Z,4.26
2023-04-07T06:51:39.165Z,4.79
2023-04-07T06:54:40.916Z,4.79
2023-04-07T06:57:42.717Z,4.30
2023-04-07T07:00:47.314Z,4.44
2023-04-07T07:03:49.277Z,4.58
2023-04-07T07:06:51.132Z,4.48
2023-04-07T07:09:54.480Z,4.87
2023-04-07T07:12:56.168Z,5.08
2023-04-07T07:15:57.902Z,5.40
2023-04-07T07:18:59.647Z,5.60
2023-04-07T07:22:04.163Z,5.78
2023-04-07T07:25:06.396Z,5.02
2023-04-07T07:28:09.386Z,5.03
2023-04-07T07:31:13.390Z,5.75
2023-04-07T07:34:15.445Z,5.14
2023-04-07T07:37:17.581Z,5.26
2023-04-07T07:40:19.625Z,5.71
2023-04-07T07:43:21.395Z,4.89
2023-04-07T07:46:26.152Z,5.38
2023-04-07T07:49:27.981Z,5.92
2023-04-07T07:52:29.688Z,6.35
2023-04-07T07:55:31.445Z,5.68
2023-04-07T07:58:33.162Z,5.19
2023-04-07T08:01:35.236Z,6.14
2023-04-07T08:04:37.777Z,6.09
2023-04-07T08:07:39.642Z,5.99
2023-04-07T08:10:41.563Z,6.09
2023-04-07T08:13:45.975Z,5.95
2023-04-07T08:16:48.093Z,6.31
2023-04-07T08:19:49.878Z,6.35
2023-04-07T08:22:51.585Z,6.12
2023-04-07T08:25:53.286Z,5.40
2023-04-07T08:28:56.142Z,5.41
2023-04-07T08:31:57.850Z,5.30
2023-04-07T08:34:59.585Z,5.82
2023-04-07T08:38:03.057Z,5.04
2023-04-07T08:41:10.213Z,4.87
2023-04-07T08:44:14.918Z,5.63
2023-04-07T08:47:17.905Z,5.99
2023-04-07T08:50:20.085Z,6.29
2023-04-07T08:53:29.644Z,5.73
2023-04-07T08:56:34.119Z,5.76
2023-04-07T08:59:36.706Z,5.99
2023-04-07T09:02:44.179Z,5.52
2023-04-07T09:05:46.602Z,4.90
2023-04-07T09:08:48.376Z,5.61
2023-04-07T09:11:51.581Z,5.80
2023-04-07T09:14:56.197Z,6.51
2023-04-07T09:17:59.363Z,5.96
2023-04-07T09:21:07.828Z,6.01
2023-04-07T09:24:26.992Z,5.70
2023-04-07T09:27:28.827Z,5.10
2023-04-07T09:30:32.593Z,5.03
2023-04-07T09:33:35.546Z,5.30
2023-04-07T09:36:42.488Z,5.10
2023-04-07T09:39:52.648Z,4.97
2023-04-07T09:42:54.708Z,4.89
2023-04-07T09:46:08.563Z,4.93
2023-04-07T09:49:10.364Z,4.27
2023-04-07T09:52:12.350Z,4.89
2023-04-07T09:55:16.069Z,4.41
2023-04-07T09:58:18.825Z,4.90
2023-04-07T10:01:21.988Z,4.82
2023-04-07T10:04:25.214Z,4.93
2023-04-07T10:07:27.215Z,5.13
2023-04-07T10:10:31.855Z,4.42
2023-04-07T10:13:36.698Z,5.14
2023-04-07T10:16:38.961Z,5.95
2023-04-07T10:19:40.824Z,5.38
2023-04-07T10:22:44.457Z,4.89
2023-04-07T10:25:48.951Z,5.00
2023-04-07T10:28:54.197Z,5.55
2023-04-07T10:31:56.168Z,6.17
2023-04-07T10:34:59.667Z,5.22
2023-04-07T10:38:07.398Z,5.64
2023-04-07T10:41:36.511Z,5.88
2023-04-07T10:44:42.076Z,5.96
2023-04-07T10:47:59.727Z,6.56
2023-04-07T10:51:12.664Z,6.00
2023-04-07T10:54:22.531Z,5.87
2023-04-07T10:57:24.344Z,5.31
2023-04-07T11:00:26.075Z,5.23
2023-04-07T11:03:29.545Z,5.65
2023-04-07T11:06:31.646Z,6.01
2023-04-07T11:09:33.296Z,6.17
2023-04-07T11:12:34.912Z,6.68
2023-04-07T11:15:40.438Z,6.19
2023-04-07T11:18:43.369Z,5.89
2023-04-07T11:21:45.045Z,6.01
2023-04-07T11:24:47.253Z,6.20
2023-04-07T11:27:49.287Z,6.72
2023-04-07T11:30:53.918Z,6.59
2023-04-07T11:34:00.053Z,6.65
2023-04-07T11:37:22.250Z,6.53
2023-04-07T11:40:35.082Z,6.86
2023-04-07T11:43:37.809Z,5.76
2023-04-07T11:46:58.269Z,5.42
2023-04-07T11:50:00.030Z,5.54
2023-04-07T11:53:01.760Z,5.31
2023-04-07T11:56:10.352Z,5.39
2023-04-07T11:59:24.152Z,5.29
2023-04-07T12:02:33.879Z,5.73
2023-04-07T12:05:45.474Z,6.25
2023-04-07T12:08:47.178Z,6.49
2023-04-07T12:11:50.356Z,7.02
2023-04-07T12:14:52.645Z,6.25
2023-04-07T12:17:55.637Z,5.96
2023-04-07T12:20:58.996Z,5.60
2023-04-07T12:24:00.649Z,5.35
2023-04-07T12:27:03.152Z,5.39
2023-04-07T12:30:05.172Z,5.39
2023-04-07T12:33:07.252Z,5.84
2023-04-07T12:36:09.183Z,5.21
2023-04-07T12:39:10.893Z,5.17
2023-04-07T12:42:12.496Z,5.10
2023-04-07T12:45:14.176Z,5.11
2023-04-07T12:48:16.759Z,5.63
2023-04-07T12:51:18.582Z,5.53
2023-04-07T12:54:20.192Z,5.08
2023-04-07T12:57:21.934Z,5.67
2023-04-07T13:00:24.223Z,5.33
2023-04-07T13:03:26.148Z,5.20
2023-04-07T13:06:27.996Z,5.07
2023-04-07T13:09:29.626Z,5.23
2023-04-07T13:12:31.260Z,5.31
2023-04-07T13:15:33.015Z,5.21
2023-04-07T13:18:34.685Z,5.56
2023-04-07T13:21:46.024Z,5.52
2023-04-07T13:24:48.851Z,5.54
2023-04-07T13:27:50.854Z,5.68
2023-04-07T13:30:52.681Z,5.16
2023-04-07T13:33:54.427Z,5.40
2023-04-07T13:36:56.515Z,5.25
2023-04-07T13:39:58.150Z,4.86
2023-04-07T13:43:01.038Z,5.14
2023-04-07T13:46:02.694Z,5.15
2023-04-07T13:49:04.417Z,5.01
2023-04-07T13:52:06.028Z,4.74
2023-04-07T13:55:08.113Z,5.00
2023-04-07T13:58:09.958Z,4.81
2023-04-07T14:01:12.132Z,4.96
2023-04-07T14:04:14.480Z,4.94
2023-04-07T14:07:16.970Z,4.85
2023-04-07T14:10:18.916Z,4.74
2023-04-07T14:13:20.675Z,4.75
2023-04-07T14:16:23.074Z,4.45
2023-04-07T14:19:24.994Z,4.56
2023-04-07T14:22:26.774Z,4.48
2023-04-07T14:25:28.436Z,4.34
2023-04-07T14:28:30.147Z,4.53
2023-04-07T14:31:32.052Z,4.62
2023-04-07T14:34:33.681Z,4.34
2023-04-07T14:37:36.184Z,4.45
2023-04-07T14:40:37.887Z,4.40
2023-04-07T14:43:39.868Z,4.48
2023-04-07T14:46:42.665Z,4.48
2023-04-07T14:49:44.355Z,4.35
2023-04-07T14:52:46.037Z,4.38
2023-04-07T14:55:47.830Z,4.36
2023-04-07T14:58:49.460Z,4.26
2023-04-07T15:01:51.650Z,4.17
2023-04-07T15:04:53.553Z,4.05
2023-04-07T15:07:55.351Z,4.19
2023-04-07T15:10:57.053Z,4.30
2023-04-07T15:13:58.647Z,4.27
2023-04-07T15:17:00.225Z,4.38
2023-04-07T15:20:01.806Z,4.06
2023-04-07T15:23:03.592Z,4.25
2023-04-07T15:26:06.087Z,4.28
2023-04-07T15:29:07.725Z,4.16
2023-04-07T15:32:09.415Z,4.04
2023-04-07T15:35:11.077Z,3.92
2023-04-07T15:38:12.697Z,3.89
2023-04-07T15:41:15.876Z,3.88
2023-04-07T15:44:21.140Z,3.89
2023-04-07T15:47:22.789Z,4.05
2023-04-07T15:50:25.231Z,3.85
2023-04-07T15:53:26.964Z,3.76
2023-04-07T15:56:28.608Z,3.83
2023-04-07T15:59:31.155Z,3.77
2023-04-07T16:02:33.084Z,3.80
2023-04-07T16:05:34.887Z,3.49
2023-04-07T16:08:36.768Z,3.48
2023-04-07T16:11:38.375Z,3.52
2023-04-07T16:14:40.058Z,3.48
2023-04-07T16:17:47.492Z,3.34
2023-04-07T16:20:49.170Z,3.36
2023-04-07T16:23:50.930Z,3.39
2023-04-07T16:26:52.647Z,3.31
2023-04-07T16:29:54.319Z,3.37
2023-04-07T16:32:56.152Z,3.31
2023-04-07T16:35:57.942Z,3.21
2023-04-07T16:38:59.654Z,3.17
2023-04-07T16:42:01.338Z,3.15
2023-04-07T16:45:03.275Z,3.20
2023-04-07T16:48:04.931Z,3.23
2023-04-07T16:51:06.661Z,3.27
2023-04-07T16:54:08.290Z,3.36
2023-04-07T16:57:09.945Z,3.26
2023-04-07T17:00:12.226Z,3.26
2023-04-07T17:03:15.459Z,3.22
2023-04-07T17:06:17.457Z,3.26
2023-04-07T17:09:19.964Z,3.28
2023-04-07T17:12:22.740Z,3.14
2023-04-07T17:15:24.511Z,3.21
2023-04-07T17:18:26.206Z,3.30
2023-04-07T17:21:27.830Z,3.38
2023-04-07T17:24:29.445Z,3.21
2023-04-07T17:27:31.242Z,3.10
2023-04-07T17:30:33.160Z,3.15
2023-04-07T17:33:35.232Z,3.19
2023-04-07T17:36:37.769Z,3.27
2023-04-07T17:39:39.483Z,3.09
2023-04-07T17:42:41.730Z,3.10
2023-04-07T17:45:43.411Z,3.13
2023-04-07T17:48:45.124Z,3.13
2023-04-07T17:51:46.734Z,3.12
2023-04-07T17:54:48.418Z,3.28
2023-04-07T17:57:50.678Z,3.23
2023-04-07T18:00:52.345Z,3.25
2023-04-07T18:03:54.434Z,3.16
2023-04-07T18:06:56.193Z,3.12
2023-04-07T18:09:58.047Z,3.15
2023-04-07T18:12:59.888Z,3.21
2023-04-07T18:16:01.587Z,3.23
2023-04-07T18:19:03.467Z,3.18
2023-04-07T18:22:05.567Z,3.36
2023-04-07T18:25:07.510Z,3.23
2023-04-07T18:28:09.193Z,3.32
2023-04-07T18:31:11.113Z,3.38
2023-04-07T18:34:12.844Z,3.10
2023-04-07T18:37:14.559Z,2.93
2023-04-07T18:40:16.498Z,2.92
2023-04-07T18:43:18.475Z,3.00
2023-04-07T18:46:20.158Z,2.90
2023-04-07T18:49:22.181Z,2.91
2023-04-07T18:52:25.624Z,2.92
2023-04-07T18:55:27.349Z,3.00
2023-04-07T18:58:29.061Z,2.88
2023-04-07T19:01:31.437Z,2.86
2023-04-07T19:04:33.255Z,2.96
2023-04-07T19:07:35.040Z,2.75
2023-04-07T19:10:36.934Z,3.00
2023-04-07T19:13:38.595Z,2.74
2023-04-07T19:16:41.185Z,2.66
2023-04-07T19:19:42.843Z,2.75
2023-04-07T19:22:44.568Z,2.72
2023-04-07T19:25:46.269Z,2.76
2023-04-07T19:28:49.207Z,2.85
2023-04-07T19:31:53.049Z,2.83
2023-04-07T19:34:54.671Z,3.09
2023-04-07T19:37:56.700Z,2.92
2023-04-07T19:40:58.425Z,3.08
2023-04-07T19:44:00.190Z,2.98
2023-04-07T19:47:01.878Z,2.87
2023-04-07T19:50:04.295Z,2.97
2023-04-07T19:53:06.162Z,3.00
2023-04-07T19:56:07.934Z,3.14
2023-04-07T19:59:09.550Z,3.28
2023-04-07T20:02:11.677Z,2.97
2023-04-07T20:05:13.516Z,2.67
2023-04-07T20:08:15.419Z,2.55
2023-04-07T20:11:17.177Z,2.82
2023-04-07T20:14:18.932Z,2.93
2023-04-07T20:17:20.770Z,2.70
2023-04-07T20:20:23.627Z,2.60
2023-04-07T20:23:25.360Z,2.76
2023-04-07T20:26:27.342Z,3.00
2023-04-07T20:29:28.980Z,2.82
2023-04-07T20:32:31.045Z,2.95
2023-04-07T20:35:32.646Z,3.05
2023-04-07T20:38:34.581Z,3.43
2023-04-07T20:41:36.477Z,3.14
2023-04-07T20:44:38.141Z,2.83
2023-04-07T20:47:40.602Z,2.79
2023-04-07T20:50:42.454Z,3.24
2023-04-07T20:53:44.097Z,3.43
2023-04-07T20:56:45.827Z,3.29
2023-04-07T20:59:47.519Z,3.20
2023-04-07T21:02:49.349Z,2.79
2023-04-07T21:05:51.361Z,2.81
2023-04-07T21:08:52.994Z,3.24
2023-04-07T21:11:54.792Z,3.56
2023-04-07T21:14:56.399Z,3.56
2023-04-07T21:17:58.040Z,3.43
2023-04-07T21:21:02.210Z,3.42
2023-04-07T21:24:04.086Z,3.55
2023-04-07T21:27:06.162Z,3.07
2023-04-07T21:30:08.426Z,2.82
2023-04-07T21:33:10.186Z,3.09
2023-04-07T21:36:13.112Z,3.47
2023-04-07T21:39:14.877Z,2.99
2023-04-07T21:42:16.632Z,2.78
2023-04-07T21:45:18.382Z,2.62
2023-04-07T21:48:23.498Z,2.82
2023-04-07T21:51:25.126Z,2.69
2023-04-07T21:54:26.856Z,2.52
2023-04-07T21:57:28.582Z,2.59
2023-04-07T22:00:30.592Z,2.54
2023-04-07T22:03:32.454Z,2.82
2023-04-07T22:06:34.280Z,2.71
2023-04-07T22:09:37.007Z,2.50
2023-04-07T22:12:38.788Z,2.86
2023-04-07T22:15:40.527Z,2.77
2023-04-07T22:18:42.246Z,2.46
2023-04-07T22:21:43.909Z,2.34
2023-04-07T22:24:45.512Z,2.34
2023-04-07T22:27:47.136Z,2.48
2023-04-07T22:30:48.773Z,2.37
2023-04-07T22:33:50.415Z,2.51
2023-04-07T22:36:52.052Z,2.31
2023-04-07T22:39:53.688Z,2.53
2023-04-07T22:42:55.880Z,2.80
2023-04-07T22:45:57.527Z,2.77
2023-04-07T22:48:59.180Z,2.54
2023-04-07T22:52:00.872Z,2.19
2023-04-07T22:55:02.481Z,2.19
2023-04-07T22:58:04.263Z,2.17
2023-04-07T23:01:05.949Z,2.24
2023-04-07T23:04:07.636Z,2.39
2023-04-07T23:07:09.326Z,2.43
2023-04-07T23:10:11.491Z,2.65
2023-04-07T23:13:15.213Z,2.54
2023-04-07T23:16:16.906Z,2.32
2023-04-07T23:19:18.592Z,2.49
2023-04-07T23:22:20.266Z,2.33
2023-04-07T23:25:22.256Z,2.24
2023-04-07T23:28:23.973Z,2.30
2023-04-07T23:31:25.714Z,2.43
2023-04-07T23:34:27.340Z,2.33
2023-04-07T23:37:29.000Z,2.41
2023-04-07T23:40:30.666Z,2.37
2023-04-07T23:43:32.638Z,2.43
2023-04-07T23:46:34.489Z,2.32
2023-04-07T23:49:36.107Z,2.45
2023-04-07T23:52:37.800Z,2.50
2023-04-07T23:55:39.416Z,2.49
2023-04-07T23:58:41.260Z,2.43
